createdAt,value
2018-12-22T00:00:13.955Z,924.39
2018-12-22T00:01:45.532Z,924.53
2018-12-22T00:03:17.181Z,924.49
2018-12-22T00:04:48.755Z,924.63
2018-12-22T00:06:20.334Z,924.57
2018-12-22T00:07:51.911Z,924.73
2018-12-22T00:09:23.639Z,924.77
2018-12-22T00:10:55.063Z,924.77
2018-12-22T00:12:26.640Z,924.78
2018-12-22T00:13:59.358Z,924.73
2018-12-22T00:15:30.099Z,924.90
2018-12-22T00:17:01.406Z,924.98
2018-12-22T00:18:32.879Z,924.92
2018-12-22T00:20:04.457Z,924.77
2018-12-22T00:21:36.035Z,924.86
2018-12-22T00:23:07.683Z,925.28
2018-12-22T00:24:39.258Z,925.35
2018-12-22T00:26:10.836Z,924.71
2018-12-22T00:27:42.864Z,924.77
2018-12-22T00:29:13.991Z,924.84
2018-12-22T00:30:45.565Z,924.93
2018-12-22T00:32:17.074Z,924.96
2018-12-22T00:33:48.654Z,925.03
2018-12-22T00:35:20.264Z,925.00
2018-12-22T00:36:51.803Z,924.83
2018-12-22T00:38:23.379Z,924.71
2018-12-22T00:39:54.955Z,924.94
2018-12-22T00:41:26.531Z,924.90
2018-12-22T00:42:58.109Z,924.85
2018-12-22T00:44:29.754Z,924.86
2018-12-22T00:46:01.479Z,924.97
2018-12-22T00:47:32.905Z,924.77
2018-12-22T00:49:04.481Z,924.71
2018-12-22T00:50:36.058Z,924.57
2018-12-22T00:52:07.562Z,924.57
2018-12-22T00:53:39.138Z,924.54
2018-12-22T00:55:10.714Z,924.63
2018-12-22T00:56:42.290Z,924.57
2018-12-22T00:58:13.875Z,924.60
2018-12-22T00:59:45.443Z,924.69
2018-12-22T01:01:17.033Z,924.67
2018-12-22T01:02:48.598Z,924.70
2018-12-22T01:04:20.272Z,924.62
2018-12-22T01:05:51.747Z,924.61
2018-12-22T01:07:23.331Z,924.60
2018-12-22T01:08:54.902Z,924.59
2018-12-22T01:10:26.473Z,924.63
2018-12-22T01:11:58.050Z,924.63
2018-12-22T01:13:29.649Z,924.59
2018-12-22T01:15:01.202Z,924.53
2018-12-22T01:16:32.792Z,924.50
2018-12-22T01:18:04.354Z,924.41
2018-12-22T01:19:35.933Z,924.41
2018-12-22T01:21:07.507Z,924.37
2018-12-22T01:22:39.316Z,924.35
2018-12-22T01:24:10.659Z,924.35
2018-12-22T01:25:42.234Z,924.37
2018-12-22T01:27:13.809Z,924.35
2018-12-22T01:28:45.689Z,924.36
2018-12-22T01:30:16.962Z,924.36
2018-12-22T01:31:48.542Z,924.35
2018-12-22T01:33:20.116Z,924.36
2018-12-22T01:34:51.692Z,924.36
2018-12-22T01:36:23.294Z,924.29
2018-12-22T01:37:54.856Z,924.30
2018-12-22T01:39:26.427Z,924.30
2018-12-22T01:40:58.098Z,924.35
2018-12-22T01:42:29.573Z,924.28
2018-12-22T01:44:01.152Z,924.28
2018-12-22T01:45:32.725Z,924.31
2018-12-22T01:47:04.303Z,924.26
2018-12-22T01:48:35.890Z,924.29
2018-12-22T01:50:07.481Z,924.29
2018-12-22T01:51:39.051Z,924.31
2018-12-22T01:53:10.608Z,924.31
2018-12-22T01:54:42.185Z,924.31
2018-12-22T01:56:13.776Z,924.33
2018-12-22T01:57:45.344Z,924.32
2018-12-22T01:59:17.039Z,924.32
2018-12-22T02:00:48.492Z,924.37
2018-12-22T02:02:20.068Z,924.39
2018-12-22T02:03:51.645Z,924.37
2018-12-22T02:05:23.223Z,924.38
2018-12-22T02:06:54.797Z,924.40
2018-12-22T02:08:26.381Z,924.34
2018-12-22T02:09:57.950Z,924.28
2018-12-22T02:11:29.525Z,924.28
2018-12-22T02:13:01.111Z,924.29
2018-12-22T02:14:32.682Z,924.29
2018-12-22T02:16:04.255Z,924.33
2018-12-22T02:17:35.931Z,924.32
2018-12-22T02:19:07.407Z,924.26
2018-12-22T02:20:38.983Z,924.20
2018-12-22T02:22:10.572Z,924.26
2018-12-22T02:23:42.138Z,924.30
2018-12-22T02:25:13.714Z,924.26
2018-12-22T02:26:45.321Z,924.24
2018-12-22T02:28:16.867Z,924.25
2018-12-22T02:29:48.443Z,924.19
2018-12-22T02:31:20.020Z,924.16
2018-12-22T02:32:51.608Z,924.12
2018-12-22T02:34:23.181Z,924.04
2018-12-22T02:35:54.848Z,924.00
2018-12-22T02:37:26.327Z,923.97
2018-12-22T02:38:57.899Z,923.94
2018-12-22T02:40:29.500Z,923.95
2018-12-22T02:42:01.054Z,923.97
2018-12-22T02:43:32.628Z,923.90
2018-12-22T02:45:04.204Z,923.88
2018-12-22T02:46:35.780Z,923.90
2018-12-22T02:48:07.356Z,923.86
2018-12-22T02:49:38.932Z,923.86
2018-12-22T02:51:10.519Z,923.84
2018-12-22T02:52:42.085Z,923.84
2018-12-22T02:54:13.762Z,923.86
2018-12-22T02:55:45.235Z,923.83
2018-12-22T02:57:16.817Z,923.81
2018-12-22T02:58:48.389Z,923.80
2018-12-22T03:00:19.965Z,923.81
2018-12-22T03:01:51.544Z,923.81
2018-12-22T03:03:23.151Z,923.74
2018-12-22T03:04:54.696Z,923.82
2018-12-22T03:06:26.274Z,923.80
2018-12-22T03:07:59.328Z,923.83
2018-12-22T03:09:29.424Z,923.85
2018-12-22T03:11:01.000Z,923.84
2018-12-22T03:12:32.676Z,923.80
2018-12-22T03:14:04.156Z,923.78
2018-12-22T03:15:35.734Z,923.74
2018-12-22T03:17:07.304Z,923.79
2018-12-22T03:18:38.891Z,923.73
2018-12-22T03:20:10.462Z,923.68
2018-12-22T03:21:42.032Z,923.64
2018-12-22T03:23:13.607Z,923.59
2018-12-22T03:24:45.184Z,923.56
2018-12-22T03:26:16.763Z,923.53
2018-12-22T03:27:48.336Z,923.50
2018-12-22T03:29:19.912Z,923.45
2018-12-22T03:30:51.596Z,923.40
2018-12-22T03:32:23.065Z,923.35
2018-12-22T03:33:54.638Z,923.36
2018-12-22T03:35:26.226Z,923.35
2018-12-22T03:36:57.791Z,923.29
2018-12-22T03:38:29.367Z,923.27
2018-12-22T03:40:00.944Z,923.21
2018-12-22T03:41:32.530Z,923.21
2018-12-22T03:43:04.093Z,923.20
2018-12-22T03:44:35.683Z,923.23
2018-12-22T03:46:07.245Z,923.29
2018-12-22T03:47:38.821Z,923.27
2018-12-22T03:49:10.496Z,923.29
2018-12-22T03:50:41.975Z,923.32
2018-12-22T03:52:13.549Z,923.32
2018-12-22T03:53:45.126Z,923.34
2018-12-22T03:55:16.701Z,923.37
2018-12-22T03:56:48.282Z,923.40
2018-12-22T03:58:19.849Z,923.44
2018-12-22T03:59:51.426Z,923.44
2018-12-22T04:01:23.301Z,923.45
2018-12-22T04:02:54.576Z,923.42
2018-12-22T04:04:26.153Z,923.41
2018-12-22T04:05:57.730Z,923.44
2018-12-22T04:07:29.603Z,923.44
2018-12-22T04:09:00.879Z,923.44
2018-12-22T04:10:32.453Z,923.45
2018-12-22T04:12:04.028Z,923.41
2018-12-22T04:13:35.610Z,923.37
2018-12-22T04:15:07.181Z,923.37
2018-12-22T04:16:38.755Z,923.30
2018-12-22T04:18:10.331Z,923.30
2018-12-22T04:19:41.909Z,923.30
2018-12-22T04:21:13.480Z,923.32
2018-12-22T04:22:45.063Z,923.26
2018-12-22T04:24:16.644Z,923.27
2018-12-22T04:25:48.306Z,923.23
2018-12-22T04:27:19.782Z,923.18
2018-12-22T04:28:51.358Z,923.15
2018-12-22T04:30:22.932Z,923.10
2018-12-22T04:31:54.507Z,923.01
2018-12-22T04:33:26.086Z,922.89
2018-12-22T04:34:57.658Z,922.79
2018-12-22T04:36:29.233Z,922.73
2018-12-22T04:38:00.813Z,922.71
2018-12-22T04:39:32.385Z,922.75
2018-12-22T04:41:03.961Z,922.71
2018-12-22T04:42:35.535Z,922.73
2018-12-22T04:44:07.211Z,922.73
2018-12-22T04:45:38.763Z,922.71
2018-12-22T04:47:10.337Z,922.67
2018-12-22T04:48:41.918Z,922.64
2018-12-22T04:50:13.480Z,922.59
2018-12-22T04:51:45.067Z,922.61
2018-12-22T04:53:16.576Z,922.56
2018-12-22T04:54:48.138Z,922.58
2018-12-22T04:56:19.714Z,922.59
2018-12-22T04:57:51.359Z,922.52
2018-12-22T04:59:22.938Z,922.51
2018-12-22T05:00:54.509Z,922.53
2018-12-22T05:02:26.186Z,922.51
2018-12-22T05:03:57.598Z,922.53
2018-12-22T05:05:29.236Z,922.52
2018-12-22T05:07:00.813Z,922.53
2018-12-22T05:08:32.400Z,922.51
2018-12-22T05:10:03.963Z,922.48
2018-12-22T05:11:35.539Z,922.43
2018-12-22T05:13:07.046Z,922.34
2018-12-22T05:14:38.622Z,922.34
2018-12-22T05:16:10.202Z,922.36
2018-12-22T05:17:41.771Z,922.32
2018-12-22T05:19:13.390Z,922.34
2018-12-22T05:20:45.224Z,922.33
2018-12-22T05:22:16.578Z,922.32
2018-12-22T05:23:48.145Z,922.32
2018-12-22T05:25:19.726Z,922.32
2018-12-22T05:26:51.296Z,922.32
2018-12-22T05:28:22.871Z,922.28
2018-12-22T05:29:54.447Z,922.26
2018-12-22T05:31:26.022Z,922.24
2018-12-22T05:32:57.525Z,922.24
2018-12-22T05:34:29.101Z,922.22
2018-12-22T05:36:00.675Z,922.23
2018-12-22T05:37:32.251Z,922.23
2018-12-22T05:39:04.628Z,922.20
2018-12-22T05:40:35.401Z,922.20
2018-12-22T05:42:06.979Z,922.18
2018-12-22T05:43:38.552Z,922.18
2018-12-22T05:45:10.129Z,922.24
2018-12-22T05:46:41.701Z,922.26
2018-12-22T05:48:13.277Z,922.25
2018-12-22T05:49:44.852Z,922.20
2018-12-22T05:51:16.451Z,922.21
2018-12-22T05:52:48.004Z,922.23
2018-12-22T05:54:19.580Z,922.19
2018-12-22T05:55:51.156Z,922.17
2018-12-22T05:57:22.831Z,922.18
2018-12-22T05:58:54.304Z,922.14
2018-12-22T06:00:25.881Z,922.12
2018-12-22T06:01:57.455Z,922.17
2018-12-22T06:03:29.401Z,922.12
2018-12-22T06:05:00.675Z,922.10
2018-12-22T06:06:32.251Z,922.08
2018-12-22T06:08:03.828Z,922.04
2018-12-22T06:09:35.401Z,921.97
2018-12-22T06:11:06.976Z,921.96
2018-12-22T06:12:38.482Z,921.90
2018-12-22T06:14:10.058Z,921.89
2018-12-22T06:15:41.733Z,921.87
2018-12-22T06:17:13.207Z,921.77
2018-12-22T06:18:44.782Z,921.76
2018-12-22T06:20:16.428Z,921.75
2018-12-22T06:21:48.004Z,921.70
2018-12-22T06:23:19.578Z,921.72
2018-12-22T06:24:51.175Z,921.75
2018-12-22T06:26:22.729Z,921.83
2018-12-22T06:27:54.302Z,921.85
2018-12-22T06:29:25.881Z,921.89
2018-12-22T06:30:57.453Z,921.93
2018-12-22T06:32:28.959Z,921.99
2018-12-22T06:34:00.632Z,922.01
2018-12-22T06:35:32.110Z,922.01
2018-12-22T06:37:03.799Z,922.04
2018-12-22T06:38:35.259Z,921.96
2018-12-22T06:40:06.835Z,921.99
2018-12-22T06:41:38.410Z,921.99
2018-12-22T06:43:09.984Z,921.99
2018-12-22T06:44:41.559Z,922.02
2018-12-22T06:46:13.135Z,922.06
2018-12-22T06:47:44.742Z,922.05
2018-12-22T06:49:16.285Z,922.06
2018-12-22T06:50:47.860Z,922.09
2018-12-22T06:52:19.538Z,922.13
2018-12-22T06:53:51.010Z,922.15
2018-12-22T06:55:22.586Z,922.19
2018-12-22T06:56:54.162Z,922.27
2018-12-22T06:58:25.738Z,922.29
2018-12-22T06:59:57.311Z,922.28
2018-12-22T07:01:28.889Z,922.31
2018-12-22T07:03:00.462Z,922.31
2018-12-22T07:04:32.338Z,922.34
2018-12-22T07:06:03.613Z,922.40
2018-12-22T07:07:35.190Z,922.41
2018-12-22T07:09:06.765Z,922.46
2018-12-22T07:10:38.439Z,922.47
2018-12-22T07:12:09.915Z,922.49
2018-12-22T07:13:41.490Z,922.41
2018-12-22T07:15:13.065Z,922.44
2018-12-22T07:16:44.642Z,922.45
2018-12-22T07:18:16.216Z,922.43
2018-12-22T07:19:47.791Z,922.47
2018-12-22T07:21:19.367Z,922.45
2018-12-22T07:22:50.944Z,922.46
2018-12-22T07:24:22.517Z,922.42
2018-12-22T07:25:54.092Z,922.46
2018-12-22T07:27:25.670Z,922.50
2018-12-22T07:28:57.345Z,922.51
2018-12-22T07:30:28.819Z,922.50
2018-12-22T07:32:00.394Z,922.60
2018-12-22T07:33:31.969Z,922.62
2018-12-22T07:35:03.544Z,922.62
2018-12-22T07:36:35.121Z,922.64
2018-12-22T07:38:06.696Z,922.57
2018-12-22T07:39:38.270Z,922.66
2018-12-22T07:41:09.846Z,922.62
2018-12-22T07:42:41.430Z,922.64
2018-12-22T07:44:12.996Z,922.64
2018-12-22T07:45:44.577Z,922.69
2018-12-22T07:47:16.247Z,922.70
2018-12-22T07:48:47.738Z,922.72
2018-12-22T07:50:19.296Z,922.74
2018-12-22T07:51:50.871Z,922.76
2018-12-22T07:53:22.446Z,922.76
2018-12-22T07:54:54.021Z,922.78
2018-12-22T07:56:25.597Z,922.77
2018-12-22T07:57:59.376Z,922.83
2018-12-22T07:59:28.749Z,922.87
2018-12-22T08:01:00.321Z,922.95
2018-12-22T08:02:31.897Z,923.04
2018-12-22T08:04:03.472Z,923.05
2018-12-22T08:05:38.946Z,922.99
2018-12-22T08:07:06.621Z,922.97
2018-12-22T08:08:38.198Z,923.00
2018-12-22T08:10:09.772Z,923.03
2018-12-22T08:11:41.348Z,922.99
2018-12-22T08:13:12.921Z,923.02
2018-12-22T08:14:44.497Z,923.08
2018-12-22T08:16:16.072Z,923.07
2018-12-22T08:17:47.648Z,923.09
2018-12-22T08:19:19.221Z,923.14
2018-12-22T08:20:50.796Z,923.27
2018-12-22T08:22:22.371Z,923.22
2018-12-22T08:23:54.047Z,923.36
2018-12-22T08:25:25.521Z,923.37
2018-12-22T08:26:57.096Z,923.34
2018-12-22T08:28:28.670Z,923.53
2018-12-22T08:30:00.250Z,923.38
2018-12-22T08:31:31.821Z,923.33
2018-12-22T08:33:03.396Z,923.56
2018-12-22T08:34:34.971Z,923.45
2018-12-22T08:36:06.845Z,923.54
2018-12-22T08:37:38.121Z,923.78
2018-12-22T08:39:09.696Z,923.56
2018-12-22T08:40:41.270Z,923.47
2018-12-22T08:42:12.948Z,923.51
2018-12-22T08:43:44.419Z,923.54
2018-12-22T08:45:15.995Z,923.60
2018-12-22T08:46:47.570Z,923.58
2018-12-22T08:48:19.145Z,923.65
2018-12-22T08:49:50.722Z,923.73
2018-12-22T08:51:22.297Z,923.68
2018-12-22T08:52:53.870Z,923.66
2018-12-22T08:54:25.445Z,923.61
2018-12-22T08:55:57.024Z,923.70
2018-12-22T08:57:28.601Z,923.61
2018-12-22T08:59:00.172Z,923.61
2018-12-22T09:00:31.848Z,923.62
2018-12-22T09:02:03.323Z,923.68
2018-12-22T09:03:34.899Z,923.70
2018-12-22T09:05:06.479Z,923.77
2018-12-22T09:06:38.050Z,923.84
2018-12-22T09:08:09.627Z,923.86
2018-12-22T09:09:41.208Z,923.88
2018-12-22T09:11:12.779Z,924.03
2018-12-22T09:12:44.356Z,923.93
2018-12-22T09:14:15.931Z,923.99
2018-12-22T09:17:19.082Z,924.02
2018-12-22T09:18:50.759Z,924.03
2018-12-22T09:20:22.235Z,924.00
2018-12-22T09:21:54.115Z,923.99
2018-12-22T09:23:25.386Z,924.04
2018-12-22T09:24:56.963Z,924.06
2018-12-22T09:26:28.539Z,924.04
2018-12-22T09:28:00.115Z,924.05
2018-12-22T09:29:31.691Z,924.08
2018-12-22T09:31:03.573Z,924.03
2018-12-22T09:32:34.843Z,923.98
2018-12-22T09:34:13.347Z,924.02
2018-12-22T09:38:41.557Z,924.15
2018-12-22T09:40:12.729Z,924.11
2018-12-22T09:41:44.304Z,924.05
2018-12-22T09:43:15.884Z,924.07
2018-12-22T09:44:47.662Z,924.14
2018-12-22T09:46:19.038Z,924.18
2018-12-22T09:47:50.615Z,924.18
2018-12-22T09:49:22.192Z,924.13
2018-12-22T09:50:53.772Z,923.95
2018-12-22T09:52:25.349Z,924.00
2018-12-22T09:53:56.929Z,924.01
2018-12-22T09:55:28.507Z,924.02
2018-12-22T09:57:00.185Z,923.96
2018-12-22T09:58:31.663Z,923.97
2018-12-22T10:00:03.765Z,923.94
2018-12-22T10:01:34.823Z,923.93
2018-12-22T10:03:06.406Z,923.90
2018-12-22T10:04:37.981Z,923.94
2018-12-22T10:07:41.211Z,923.97
2018-12-22T10:09:12.791Z,923.95
2018-12-22T10:10:44.371Z,923.90
2018-12-22T10:13:47.662Z,924.10
2018-12-22T10:15:19.563Z,924.08
2018-12-22T10:16:50.689Z,924.00
2018-12-22T10:18:22.269Z,924.01
2018-12-22T10:19:54.052Z,924.08
2018-12-22T10:21:25.430Z,924.15
2018-12-22T10:22:56.980Z,924.14
2018-12-22T10:24:28.749Z,924.06
2018-12-22T10:26:00.098Z,924.02
2018-12-22T10:27:31.680Z,924.03
2018-12-22T10:29:03.782Z,924.11
2018-12-22T10:30:34.842Z,924.10
2018-12-22T10:32:06.420Z,924.19
2018-12-22T10:36:41.798Z,924.16
2018-12-22T10:39:44.695Z,924.16
2018-12-22T10:42:47.684Z,924.22
2018-12-22T10:44:19.131Z,924.27
2018-12-22T10:45:50.711Z,924.22
2018-12-22T10:47:22.292Z,924.24
2018-12-22T10:48:54.079Z,924.17
2018-12-22T10:50:25.455Z,924.11
2018-12-22T10:51:57.035Z,924.10
2018-12-22T10:53:28.547Z,924.17
2018-12-22T10:55:00.300Z,924.22
2018-12-22T10:56:31.709Z,924.20
2018-12-22T10:58:03.813Z,924.21
2018-12-22T10:59:34.873Z,924.21
2018-12-22T11:01:06.454Z,924.21
2018-12-22T11:02:38.036Z,924.24
2018-12-22T11:04:09.947Z,924.27
2018-12-22T11:05:41.207Z,924.19
2018-12-22T11:07:12.783Z,924.26
2018-12-22T11:10:15.947Z,924.27
2018-12-22T11:13:19.735Z,924.37
2018-12-22T11:14:50.695Z,924.39
2018-12-22T11:16:22.276Z,924.31
2018-12-22T11:17:53.859Z,924.40
2018-12-22T11:19:25.644Z,924.38
2018-12-22T11:20:57.024Z,924.35
2018-12-22T11:22:28.608Z,924.38
2018-12-22T11:25:31.774Z,924.38
2018-12-22T11:27:03.358Z,924.36
2018-12-22T11:28:34.938Z,924.42
2018-12-22T11:30:06.522Z,924.43
2018-12-22T11:31:38.408Z,924.34
2018-12-22T11:33:09.688Z,924.43
2018-12-22T11:34:41.273Z,924.38
2018-12-22T11:36:12.852Z,924.40
2018-12-22T11:37:44.436Z,924.46
2018-12-22T11:39:16.021Z,924.43
2018-12-22T11:40:47.611Z,924.43
2018-12-22T11:42:19.188Z,924.43
2018-12-22T11:43:50.770Z,924.48
2018-12-22T11:45:22.354Z,924.59
2018-12-22T11:46:54.037Z,924.59
2018-12-22T11:49:57.510Z,924.44
2018-12-22T11:51:28.688Z,924.45
2018-12-22T11:53:00.272Z,924.41
2018-12-22T11:54:31.855Z,924.39
2018-12-22T11:56:03.439Z,924.32
2018-12-22T11:57:35.022Z,924.38
2018-12-22T11:59:06.606Z,924.38
2018-12-22T12:00:38.191Z,924.40
2018-12-22T12:02:10.192Z,924.35
2018-12-22T12:03:41.359Z,924.38
2018-12-22T12:05:12.943Z,924.34
2018-12-22T12:06:44.834Z,924.34
2018-12-22T12:09:48.097Z,924.34
2018-12-22T12:11:19.588Z,924.43
2018-12-22T12:12:50.870Z,924.48
2018-12-22T12:14:22.450Z,924.51
2018-12-22T12:15:54.033Z,924.46
2018-12-22T12:17:25.619Z,924.52
2018-12-22T12:20:28.792Z,924.51
2018-12-22T12:22:00.374Z,924.48
2018-12-22T12:23:32.467Z,924.46
2018-12-22T12:26:35.132Z,924.40
2018-12-22T12:28:06.814Z,924.46
2018-12-22T12:29:38.297Z,924.45
2018-12-22T12:31:10.088Z,924.54
2018-12-22T12:32:41.672Z,924.54
2018-12-22T12:34:13.052Z,924.57
2018-12-22T12:35:44.644Z,924.67
2018-12-22T12:37:16.223Z,924.63
2018-12-22T12:40:19.400Z,924.57
2018-12-22T12:43:22.563Z,924.54
2018-12-22T12:44:55.311Z,924.53
2018-12-22T12:47:57.422Z,924.61
2018-12-22T12:49:28.941Z,924.51
2018-12-22T12:51:00.494Z,924.49
2018-12-22T12:52:32.282Z,924.43
2018-12-22T12:54:03.668Z,924.46
2018-12-22T12:55:35.324Z,924.40
2018-12-22T12:57:06.909Z,924.42
2018-12-22T12:58:38.495Z,924.41
2018-12-22T13:00:10.082Z,924.42
2018-12-22T13:01:41.667Z,924.34
2018-12-22T13:03:13.388Z,924.39
2018-12-22T13:04:45.294Z,924.35
2018-12-22T13:06:16.459Z,924.38
2018-12-22T13:07:47.944Z,924.38
2018-12-22T13:10:51.119Z,924.37
2018-12-22T13:13:54.294Z,924.44
2018-12-22T13:16:57.677Z,924.45
2018-12-22T13:18:29.057Z,924.38
2018-12-22T13:20:00.678Z,924.42
2018-12-22T13:21:33.290Z,924.40
2018-12-22T13:23:04.345Z,924.41
2018-12-22T13:24:35.535Z,924.40
2018-12-22T13:26:07.175Z,924.42
2018-12-22T13:27:38.587Z,924.41
2018-12-22T13:29:10.409Z,924.35
2018-12-22T13:30:41.768Z,924.41
2018-12-22T13:32:13.351Z,924.40
2018-12-22T13:33:44.940Z,924.39
2018-12-22T13:35:16.528Z,924.39
2018-12-22T13:36:48.117Z,924.44
2018-12-22T13:38:20.014Z,924.59
2018-12-22T13:39:51.819Z,924.50
2018-12-22T13:41:22.885Z,924.41
2018-12-22T13:42:54.476Z,924.38
2018-12-22T13:44:26.164Z,924.43
2018-12-22T13:45:57.654Z,924.37
2018-12-22T13:47:29.829Z,924.38
2018-12-22T13:49:00.852Z,924.36
2018-12-22T13:50:32.466Z,924.32
2018-12-22T13:52:04.033Z,924.35
2018-12-22T13:53:35.805Z,924.44
2018-12-22T13:55:07.312Z,924.35
2018-12-22T13:56:39.233Z,924.37
2018-12-22T13:58:10.372Z,924.35
2018-12-22T13:59:41.962Z,924.38
2018-12-22T14:02:45.547Z,924.43
2018-12-22T14:04:16.733Z,924.56
2018-12-22T14:05:48.630Z,924.58
2018-12-22T14:07:19.916Z,924.64
2018-12-22T14:10:23.098Z,924.53
2018-12-22T14:11:54.691Z,924.65
2018-12-22T14:13:26.280Z,924.70
2018-12-22T14:16:29.966Z,924.66
2018-12-22T14:18:01.051Z,924.75
2018-12-22T14:19:32.638Z,924.77
2018-12-22T14:21:04.223Z,924.74
2018-12-22T14:22:36.215Z,924.78
2018-12-22T14:24:07.398Z,924.78
2018-12-22T14:25:38.983Z,924.85
2018-12-22T14:27:11.095Z,924.86
2018-12-22T14:28:42.158Z,924.66
2018-12-22T14:30:13.748Z,924.69
2018-12-22T14:31:45.336Z,924.27
2018-12-22T14:33:16.923Z,924.11
2018-12-22T14:34:48.513Z,924.06
2018-12-22T14:36:20.118Z,924.01
2018-12-22T14:37:52.118Z,923.96
2018-12-22T14:40:54.967Z,924.08
2018-12-22T14:42:26.456Z,923.99
2018-12-22T14:43:58.054Z,923.94
2018-12-22T14:45:29.631Z,924.00
2018-12-22T14:47:01.221Z,924.03
2018-12-22T14:48:32.804Z,923.98
2018-12-22T14:50:04.393Z,924.07
2018-12-22T14:51:35.992Z,923.95
2018-12-22T14:54:39.164Z,923.76
2018-12-22T14:56:10.754Z,923.65
2018-12-22T14:57:42.345Z,923.76
2018-12-22T14:59:13.938Z,923.76
2018-12-22T15:02:17.422Z,923.94
2018-12-22T15:03:48.712Z,923.69
2018-12-22T15:05:20.402Z,923.69
2018-12-22T15:06:51.897Z,923.73
2018-12-22T15:08:23.689Z,923.59
2018-12-22T15:09:55.279Z,923.44
2018-12-22T15:11:26.665Z,923.54
2018-12-22T15:12:58.556Z,923.71
2018-12-22T15:14:29.840Z,923.60
2018-12-22T15:16:01.429Z,923.45
2018-12-22T15:17:33.017Z,923.41
2018-12-22T15:19:04.601Z,923.70
2018-12-22T15:20:36.289Z,923.42
2018-12-22T15:22:07.782Z,923.48
2018-12-22T15:23:39.363Z,923.64
2018-12-22T15:25:10.951Z,923.61
2018-12-22T15:28:14.551Z,923.35
2018-12-22T15:29:45.708Z,923.17
2018-12-22T15:31:17.816Z,923.21
2018-12-22T15:32:54.459Z,923.37
2018-12-22T15:35:52.459Z,923.30
2018-12-22T15:37:23.737Z,923.14
2018-12-22T15:38:55.221Z,923.18
2018-12-22T15:40:26.807Z,923.14
2018-12-22T15:46:33.146Z,922.91
2018-12-22T15:48:04.730Z,923.01
2018-12-22T15:49:36.518Z,922.97
2018-12-22T15:51:07.900Z,922.93
2018-12-22T15:52:39.587Z,923.20
2018-12-22T15:54:11.072Z,923.27
2018-12-22T15:55:42.657Z,923.05
2018-12-22T15:57:14.245Z,922.89
2018-12-22T15:58:45.834Z,922.79
2018-12-22T16:00:17.422Z,922.73
2018-12-22T16:03:20.595Z,922.69
2018-12-22T16:04:52.181Z,922.50
2018-12-22T16:07:55.354Z,922.50
2018-12-22T16:09:26.937Z,922.54
2018-12-22T16:12:30.912Z,922.56
2018-12-22T16:14:01.693Z,922.50
2018-12-22T16:15:33.584Z,922.48
2018-12-22T16:17:04.860Z,922.42
2018-12-22T16:18:36.443Z,922.48
2018-12-22T16:20:08.026Z,922.48
2018-12-22T16:23:11.192Z,922.58
2018-12-22T16:24:42.976Z,922.59
2018-12-22T16:26:14.358Z,922.65
2018-12-22T16:27:45.939Z,922.93
2018-12-22T16:30:49.202Z,922.54
2018-12-22T16:32:20.684Z,922.55
2018-12-22T16:33:52.265Z,922.56
2018-12-22T16:35:23.843Z,922.54
2018-12-22T16:36:55.663Z,922.51
2018-12-22T16:38:27.021Z,922.51
2018-12-22T16:39:58.585Z,922.61
2018-12-22T16:43:01.947Z,922.57
2018-12-22T16:44:33.629Z,922.56
2018-12-22T16:46:04.903Z,922.51
2018-12-22T16:47:36.483Z,922.50
2018-12-22T16:49:08.164Z,922.49
2018-12-22T16:50:39.646Z,922.45
2018-12-22T16:52:11.228Z,922.47
2018-12-22T16:55:14.484Z,922.36
2018-12-22T16:56:45.981Z,922.36
2018-12-22T16:59:49.118Z,922.44
2018-12-22T17:01:20.900Z,922.55
2018-12-22T17:02:52.684Z,922.45
2018-12-22T17:05:55.635Z,922.45
2018-12-22T17:07:27.114Z,922.38
2018-12-22T17:08:58.594Z,922.48
2018-12-22T17:10:30.171Z,922.40
2018-12-22T17:12:01.751Z,922.43
2018-12-22T17:13:33.329Z,922.36
2018-12-22T17:15:04.909Z,922.37
2018-12-22T17:16:36.486Z,922.33
2018-12-22T17:18:08.065Z,922.24
2018-12-22T17:19:39.643Z,922.26
2018-12-22T17:21:11.221Z,922.24
2018-12-22T17:22:42.863Z,922.23
2018-12-22T17:24:14.378Z,922.15
2018-12-22T17:25:46.058Z,922.12
2018-12-22T17:28:49.116Z,922.05
2018-12-22T17:30:20.692Z,922.02
2018-12-22T17:31:52.472Z,922.07
2018-12-22T17:33:23.850Z,922.01
2018-12-22T17:34:55.429Z,921.96
2018-12-22T17:36:27.007Z,921.91
2018-12-22T17:37:58.588Z,921.86
2018-12-22T17:39:36.588Z,921.85
2018-12-22T17:41:01.743Z,921.84
2018-12-22T17:42:33.629Z,921.77
2018-12-22T17:44:05.003Z,921.67
2018-12-22T17:45:36.609Z,921.59
2018-12-22T17:47:08.060Z,921.48
2018-12-22T17:48:39.641Z,921.46
2018-12-22T17:50:11.435Z,921.37
2018-12-22T17:51:43.736Z,921.36
2018-12-22T17:53:14.604Z,921.39
2018-12-22T17:54:45.958Z,921.38
2018-12-22T17:56:17.742Z,921.39
2018-12-22T17:57:49.121Z,921.42
2018-12-22T18:00:52.277Z,921.58
2018-12-22T18:02:23.959Z,921.69
2018-12-22T18:05:27.019Z,921.82
2018-12-22T18:06:58.598Z,921.91
2018-12-22T18:08:30.380Z,921.91
2018-12-22T18:10:01.759Z,921.88
2018-12-22T18:11:33.337Z,921.87
2018-12-22T18:13:04.918Z,921.81
2018-12-22T18:16:08.080Z,921.67
2018-12-22T18:17:39.658Z,921.62
2018-12-22T18:19:11.237Z,921.60
2018-12-22T18:20:42.817Z,921.62
2018-12-22T18:22:14.499Z,921.56
2018-12-22T18:23:46.180Z,921.61
2018-12-22T18:25:17.558Z,921.59
2018-12-22T18:26:49.140Z,921.61
2018-12-22T18:28:20.717Z,921.62
2018-12-22T18:31:23.880Z,921.66
2018-12-22T18:35:58.823Z,921.68
2018-12-22T18:39:01.780Z,921.68
2018-12-22T18:40:33.563Z,921.61
2018-12-22T18:45:08.723Z,921.51
2018-12-22T18:46:40.204Z,921.47
2018-12-22T18:49:42.840Z,921.42
2018-12-22T18:51:14.419Z,921.36
2018-12-22T18:52:45.999Z,921.32
2018-12-22T18:54:17.785Z,921.26
2018-12-22T18:55:49.159Z,921.21
2018-12-22T18:57:20.742Z,921.25
2018-12-22T18:58:52.319Z,921.25
2018-12-22T19:01:55.477Z,921.24
2018-12-22T19:03:27.158Z,921.21
2018-12-22T19:04:58.638Z,921.14
2018-12-22T19:08:02.000Z,921.14
2018-12-22T19:09:33.683Z,921.07
2018-12-22T19:11:04.958Z,921.07
2018-12-22T19:12:36.740Z,921.07
2018-12-22T19:14:08.117Z,921.07
2018-12-22T19:17:11.275Z,921.15
2018-12-22T19:18:42.856Z,921.19
2018-12-22T19:20:14.436Z,921.19
2018-12-22T19:21:46.016Z,921.24
2018-12-22T19:23:17.696Z,921.20
2018-12-22T19:24:49.175Z,921.31
2018-12-22T19:26:20.756Z,921.32
2018-12-22T19:27:52.333Z,921.38
2018-12-22T19:29:23.912Z,921.39
2018-12-22T19:30:55.492Z,921.40
2018-12-22T19:32:27.071Z,921.42
2018-12-22T19:33:58.650Z,921.41
2018-12-22T19:35:30.229Z,921.47
2018-12-22T19:37:01.808Z,921.49
2018-12-22T19:38:33.695Z,921.52
2018-12-22T19:40:04.968Z,921.53
2018-12-22T19:41:36.645Z,921.57
2018-12-22T19:43:08.124Z,921.60
2018-12-22T19:44:39.703Z,921.56
2018-12-22T19:46:11.284Z,921.48
2018-12-22T19:47:42.860Z,921.47
2018-12-22T19:49:14.438Z,921.44
2018-12-22T19:52:17.807Z,921.42
2018-12-22T19:53:49.185Z,921.39
2018-12-22T19:55:20.762Z,921.44
2018-12-22T19:56:52.334Z,921.45
2018-12-22T19:58:24.333Z,921.49
2018-12-22T19:59:55.791Z,921.50
2018-12-22T20:01:27.067Z,921.48
2018-12-22T20:04:30.224Z,921.38
2018-12-22T20:06:01.804Z,921.37
2018-12-22T20:07:33.689Z,921.32
2018-12-22T20:10:36.537Z,921.20
2018-12-22T20:12:08.119Z,921.16
2018-12-22T20:15:11.274Z,921.19
2018-12-22T20:16:43.054Z,921.21
2018-12-22T20:18:14.531Z,921.17
2018-12-22T20:19:46.010Z,921.21
2018-12-22T20:21:17.792Z,921.24
2018-12-22T20:22:49.167Z,921.24
2018-12-22T20:24:20.746Z,921.25
2018-12-22T20:25:52.324Z,921.27
2018-12-22T20:27:23.904Z,921.37
2018-12-22T20:28:55.481Z,921.41
2018-12-22T20:30:27.059Z,921.43
2018-12-22T20:31:58.638Z,921.36
2018-12-22T20:33:30.218Z,921.37